CMA CGM Balzac — DIHN — position and weather

sailwx.info

Track history (hours):
 
Tides and Currents Weather Stations Pressure Air Temp Water Temp Dewpoint Dewpoint Depression Visibility Wind Speed Wind Dir Waves Ship Positions

CMA CGM Balzac

Last reported at 2016-Jun-24 18:11 UTC. Time now 2016-Jun-27 07:38 UTC.
Position N 01°58' E 102°16'.

Length 300.3 m; beam 40.3 m; draft 14 m.

Type: Ship. MMSI: 211378810.

Date/timePositionNaut miles runAvg speedWind from/ knotsBaromVisibWave heightAir tempDewpointWater temp
2016-Jun-24 18:11N 01°58' E 102°16'811.9
2016-Jun-24 17:33N 01°54' E 102°23'1111.3
2016-Jun-24 16:33N 01°50' E 102°33'1110.8
2016-Jun-24 15:33N 01°45' E 102°43'6311.8
2016-Jun-24 10:13N 01°12' E 103°37'710.7
2016-Jun-24 09:33N 01°15' E 103°43'4 4.1
2016-Jun-24 08:33N 01°16' E 103°47'0 0.0
2016-Jun-24 07:33N 01°16' E 103°47'0 0.0
2016-Jun-24 04:33N 01°16' E 103°47'0 0.0
2016-Jun-24 03:33N 01°16' E 103°47'0 0.0
2016-Jun-24 02:33N 01°16' E 103°47'0 0.0
2016-Jun-24 01:33N 01°16' E 103°47'0 0.0
2016-Jun-24 00:33N 01°16' E 103°47'0 0.0
2016-Jun-23 23:33N 01°16' E 103°47'0 0.0
2016-Jun-23 22:33N 01°16' E 103°47'0 0.0
2016-Jun-23 21:33N 01°16' E 103°47'0 0.0
2016-Jun-23 20:33N 01°16' E 103°47'0 0.0
2016-Jun-23 19:33N 01°16' E 103°47'0 0.0
2016-Jun-23 18:31N 01°16' E 103°47'0 0.3
2016-Jun-23 17:33N 01°16' E 103°47'7 6.6
2016-Jun-23 16:33N 01°13' E 103°53'8 8.3
2016-Jun-23 15:33N 01°16' E 104°00'  
2016-Jun-18 22:09N 22°16' E 120°00'813.9
2016-Jun-18 21:33N 22°23' E 120°05'1313.4
2016-Jun-18 20:33N 22°33' E 120°15'4 4.4
2016-Jun-18 19:33N 22°33' E 120°20'0 0.0
2016-Jun-18 18:33N 22°33' E 120°20'0 0.0
2016-Jun-18 17:33N 22°33' E 120°20'0 0.0
2016-Jun-18 16:33N 22°33' E 120°20'0 0.0
2016-Jun-18 15:33N 22°33' E 120°20'0 0.0
2016-Jun-18 14:33N 22°33' E 120°20'0 0.4
2016-Jun-18 13:33N 22°33' E 120°20'7 7.4
2016-Jun-18 12:33N 22°33' E 120°11'1515.0
2016-Jun-18 11:33N 22°47' E 120°05'69916.1
2016-Jun-16 16:03N 33°59' E 123°44'2315.6
2016-Jun-16 14:33N 34°22' E 123°38'1716.3
2016-Jun-16 13:32N 34°34' E 123°23'1616.2
2016-Jun-16 12:34N 34°44' E 123°09'2416.6
2016-Jun-16 11:06N 35°00' E 122°47'  
Track history (hours):
 
Tides and Currents Weather Stations Pressure Air Temp Water Temp Dewpoint Dewpoint Depression Visibility Wind Speed Wind Dir Waves Ship Positions

CMA CGM Balzac

Last reported at 2016-Jun-24 18:11 UTC. Time now 2016-Jun-27 07:38 UTC.
Position N 01°58' E 102°16'.

Length 300.3 m; beam 40.3 m; draft 14 m.

Type: Ship. MMSI: 211378810.

Date/timePositionNaut miles runAvg speedWind from/ knotsBaromVisibWave heightAir tempDewpointWater temp
2016-Jun-24 18:11N 01°58' E 102°16'811.9
2016-Jun-24 17:33N 01°54' E 102°23'1111.3
2016-Jun-24 16:33N 01°50' E 102°33'1110.8
2016-Jun-24 15:33N 01°45' E 102°43'6311.8
2016-Jun-24 10:13N 01°12' E 103°37'710.7
2016-Jun-24 09:33N 01°15' E 103°43'4 4.1
2016-Jun-24 08:33N 01°16' E 103°47'0 0.0
2016-Jun-24 07:33N 01°16' E 103°47'0 0.0
2016-Jun-24 04:33N 01°16' E 103°47'0 0.0
2016-Jun-24 03:33N 01°16' E 103°47'0 0.0
2016-Jun-24 02:33N 01°16' E 103°47'0 0.0
2016-Jun-24 01:33N 01°16' E 103°47'0 0.0
2016-Jun-24 00:33N 01°16' E 103°47'0 0.0
2016-Jun-23 23:33N 01°16' E 103°47'0 0.0
2016-Jun-23 22:33N 01°16' E 103°47'0 0.0
2016-Jun-23 21:33N 01°16' E 103°47'0 0.0
2016-Jun-23 20:33N 01°16' E 103°47'0 0.0
2016-Jun-23 19:33N 01°16' E 103°47'0 0.0
2016-Jun-23 18:31N 01°16' E 103°47'0 0.3
2016-Jun-23 17:33N 01°16' E 103°47'7 6.6
2016-Jun-23 16:33N 01°13' E 103°53'8 8.3
2016-Jun-23 15:33N 01°16' E 104°00'  
2016-Jun-18 22:09N 22°16' E 120°00'813.9
2016-Jun-18 21:33N 22°23' E 120°05'1313.4
2016-Jun-18 20:33N 22°33' E 120°15'4 4.4
2016-Jun-18 19:33N 22°33' E 120°20'0 0.0
2016-Jun-18 18:33N 22°33' E 120°20'0 0.0
2016-Jun-18 17:33N 22°33' E 120°20'0 0.0
2016-Jun-18 16:33N 22°33' E 120°20'0 0.0
2016-Jun-18 15:33N 22°33' E 120°20'0 0.0
2016-Jun-18 14:33N 22°33' E 120°20'0 0.4
2016-Jun-18 13:33N 22°33' E 120°20'7 7.4
2016-Jun-18 12:33N 22°33' E 120°11'1515.0
2016-Jun-18 11:33N 22°47' E 120°05'69916.1
2016-Jun-16 16:03N 33°59' E 123°44'2315.6
2016-Jun-16 14:33N 34°22' E 123°38'1716.3
2016-Jun-16 13:32N 34°34' E 123°23'1616.2
2016-Jun-16 12:34N 34°44' E 123°09'2416.6
2016-Jun-16 11:06N 35°00' E 122°47'  

Dump ship's entire track history